Jackson, Mississippi
Current Conditions -  °F | °C
As of 7:53 PM on Friday 24 Oct 2014 (Local Time) from KHKS Reporting Station
Clear Clear  
Wind Chill: 59°   Ceiling: Unl
Heat Index: 59°   Visibility: 10mi
Dew Point: 48°   Wind: 0mph
Humidity: 67%   Direction: NA
Pressure: 30.11"   Gusts: NA
Location:  32.3°N, 90.18°W
Report Text: KHKS 250053Z 00000KT 10SM CLR 15/09 A3011 RMK AO2 SLP191 T01500089
Loading
Personal Weather Stations






























Interactive Weather Map New forecast layout! Learn more

10-Day Weather Forecast

Advertisements
Track Severe Weather on mobile